Time;durP1;ratioP1;P1;durP2;ratioP2;P2;SDS_P1;SDS_P2;PMS_P1;PMS_P2;Temp;Humidity;BMP_temperature;BMP_pressure;BME280_temperature;BME280_humidity;BME280_pressure;Samples;Min_cycle;Max_cycle;Signal;HPM_P1;HPM_P2
2023/04/24 00:01:08;;;;;;;;;14.75;12.00;;;;;;;;119889;1190;25063;-63
2023/04/24 00:03:36;;;;;;;;;9.75;9.75;;;;;;;;119863;1183;25026;-63
2023/04/24 00:06:07;;;;;;;;;20.00;13.00;;;;;;;;119892;1190;25479;-63
2023/04/24 00:08:36;;;;;;;;;11.33;10.00;;;;;;;;119901;1190;25082;-64
2023/04/24 00:11:04;;;;;;;;;13.00;11.00;;;;;;;;119891;1190;24891;-64
2023/04/24 00:13:32;;;;;;;;;15.33;12.00;;;;;;;;119912;1182;26172;-63
2023/04/24 00:16:01;;;;;;;;;15.50;12.25;;;;;;;;119938;1190;25142;-64
2023/04/24 00:18:29;;;;;;;;;15.75;11.00;;;;;;;;119908;1190;25204;-63
2023/04/24 00:20:57;;;;;;;;;11.25;11.25;;;;;;;;119922;1190;25109;-63
2023/04/24 00:23:25;;;;;;;;;12.50;12.25;;;;;;;;119923;1190;25783;-63
2023/04/24 00:25:53;;;;;;;;;16.00;12.67;;;;;;;;119933;1190;25013;-63
2023/04/24 00:28:21;;;;;;;;;17.00;12.33;;;;;;;;119963;1182;25012;-63
2023/04/24 00:30:49;;;;;;;;;17.33;11.33;;;;;;;;119928;1182;25609;-63
2023/04/24 00:33:18;;;;;;;;;14.67;12.67;;;;;;;;119924;1190;25615;-63
2023/04/24 00:35:46;;;;;;;;;15.67;10.00;;;;;;;;119890;1190;25561;-64
2023/04/24 00:38:14;;;;;;;;;10.25;9.50;;;;;;;;119914;1190;25462;-63
2023/04/24 00:40:42;;;;;;;;;17.50;12.00;;;;;;;;119919;1190;24811;-64
2023/04/24 00:43:11;;;;;;;;;14.75;12.50;;;;;;;;119962;1181;25210;-63
2023/04/24 00:45:39;;;;;;;;;13.00;12.50;;;;;;;;119931;1182;25674;-63
2023/04/24 00:48:08;;;;;;;;;14.75;11.75;;;;;;;;119928;1190;25309;-63
2023/04/24 00:50:36;;;;;;;;;12.33;11.33;;;;;;;;119906;1190;25508;-64
2023/04/24 00:53:05;;;;;;;;;12.00;10.67;;;;;;;;119939;1182;25407;-63
2023/04/24 00:55:33;;;;;;;;;12.25;10.50;;;;;;;;119902;1190;24825;-63
2023/04/24 00:58:02;;;;;;;;;11.50;10.75;;;;;;;;119919;1182;25711;-63
2023/04/24 01:00:30;;;;;;;;;18.50;12.00;;;;;;;;119906;1190;25238;-64
2023/04/24 01:03:01;;;;;;;;;13.33;8.67;;;;;;;;119929;1181;24990;-63
2023/04/24 01:05:30;;;;;;;;;14.75;12.75;;;;;;;;119902;1190;25143;-63
2023/04/24 01:07:58;;;;;;;;;9.00;9.00;;;;;;;;119904;1190;25101;-64
2023/04/24 01:10:27;;;;;;;;;15.75;12.00;;;;;;;;119901;1182;25270;-63
2023/04/24 01:12:55;;;;;;;;;13.50;11.00;;;;;;;;119915;1190;25042;-63
2023/04/24 01:15:23;;;;;;;;;11.00;9.67;;;;;;;;119931;1181;25290;-63
2023/04/24 01:17:51;;;;;;;;;10.33;10.33;;;;;;;;119920;1190;25637;-63
2023/04/24 01:20:20;;;;;;;;;13.00;11.00;;;;;;;;119924;1190;25452;-64
2023/04/24 01:22:49;;;;;;;;;14.00;13.00;;;;;;;;119896;1182;24719;-64
2023/04/24 01:25:17;;;;;;;;;10.75;10.00;;;;;;;;119917;1190;25558;-64
2023/04/24 01:27:46;;;;;;;;;8.00;7.50;;;;;;;;119859;1190;25127;-63
2023/04/24 01:30:14;;;;;;;;;11.33;9.33;;;;;;;;119902;1190;24996;-64
2023/04/24 01:32:44;;;;;;;;;11.50;11.00;;;;;;;;119881;1190;25210;-63
2023/04/24 01:35:12;;;;;;;;;12.25;10.00;;;;;;;;119900;1190;26381;-64
2023/04/24 01:37:40;;;;;;;;;15.00;11.00;;;;;;;;119917;1182;24692;-64
2023/04/24 01:40:09;;;;;;;;;7.50;7.50;;;;;;;;119908;1190;24992;-64
2023/04/24 01:42:38;;;;;;;;;11.75;10.00;;;;;;;;119843;1191;24769;-64
2023/04/24 01:45:06;;;;;;;;;13.33;11.33;;;;;;;;119799;1183;25408;-63
2023/04/24 01:47:35;;;;;;;;;12.00;10.50;;;;;;;;119783;1183;25470;-63
2023/04/24 01:50:04;;;;;;;;;10.00;9.67;;;;;;;;119740;1191;24859;-63
2023/04/24 01:52:33;;;;;;;;;15.00;10.67;;;;;;;;119933;1191;25192;-63
2023/04/24 01:55:02;;;;;;;;;12.00;10.75;;;;;;;;119773;1191;24887;-64
2023/04/24 01:57:33;;;;;;;;;9.75;9.75;;;;;;;;119904;1191;26274;-63
2023/04/24 02:00:04;;;;;;;;;12.00;10.00;;;;;;;;119888;1190;25384;-63
2023/04/24 02:02:32;;;;;;;;;11.50;11.00;;;;;;;;119927;1190;25452;-63
2023/04/24 02:05:00;;;;;;;;;12.00;9.25;;;;;;;;119873;1190;24955;-64
2023/04/24 02:07:29;;;;;;;;;11.00;11.00;;;;;;;;119910;1190;24895;-64
2023/04/24 02:09:57;;;;;;;;;7.67;7.67;;;;;;;;119933;1190;25085;-63
2023/04/24 02:12:25;;;;;;;;;13.67;10.00;;;;;;;;119915;1190;24916;-63
2023/04/24 02:14:53;;;;;;;;;10.00;8.00;;;;;;;;119918;1190;25077;-64
2023/04/24 02:17:22;;;;;;;;;10.75;10.00;;;;;;;;119918;1182;25290;-64
2023/04/24 02:19:50;;;;;;;;;13.67;10.67;;;;;;;;119926;1190;24776;-63
2023/04/24 02:22:18;;;;;;;;;13.00;10.33;;;;;;;;119935;1190;24978;-64
2023/04/24 02:24:46;;;;;;;;;9.25;8.25;;;;;;;;119908;1190;25662;-64
2023/04/24 02:27:15;;;;;;;;;11.67;9.00;;;;;;;;119909;1190;24839;-63
2023/04/24 02:29:43;;;;;;;;;8.50;8.50;;;;;;;;119898;1190;24689;-64
2023/04/24 02:32:12;;;;;;;;;12.75;11.00;;;;;;;;119934;1182;25483;-64
2023/04/24 02:34:41;;;;;;;;;11.67;10.00;;;;;;;;119936;1191;25280;-64
2023/04/24 02:37:09;;;;;;;;;10.33;9.00;;;;;;;;119890;1191;25668;-63
2023/04/24 02:39:37;;;;;;;;;8.33;8.33;;;;;;;;119924;1191;25729;-64
2023/04/24 02:42:07;;;;;;;;;14.00;11.67;;;;;;;;119920;1182;25066;-64
2023/04/24 02:44:36;;;;;;;;;8.75;8.75;;;;;;;;119939;1182;25607;-64
2023/04/24 02:47:04;;;;;;;;;11.25;9.75;;;;;;;;119963;1181;24863;-64
2023/04/24 02:49:32;;;;;;;;;11.25;10.00;;;;;;;;119925;1190;25260;-64
2023/04/24 02:52:01;;;;;;;;;13.00;9.00;;;;;;;;119946;1182;25709;-63
2023/04/24 02:54:29;;;;;;;;;8.50;8.50;;;;;;;;119923;1190;25004;-63
2023/04/24 02:56:58;;;;;;;;;13.00;10.75;;;;;;;;119898;1190;24944;-64
2023/04/24 02:59:28;;;;;;;;;7.00;7.00;;;;;;;;119914;1190;25047;-63
2023/04/24 03:01:56;;;;;;;;;12.50;12.00;;;;;;;;119926;1189;25765;-63
2023/04/24 03:04:25;;;;;;;;;11.00;9.00;;;;;;;;119935;1181;24783;-63
2023/04/24 03:06:54;;;;;;;;;9.00;8.67;;;;;;;;119951;1190;25073;-63
2023/04/24 03:09:23;;;;;;;;;12.00;10.00;;;;;;;;119887;1190;25439;-63
2023/04/24 03:11:51;;;;;;;;;12.67;9.67;;;;;;;;119897;1190;26297;-63
2023/04/24 03:14:20;;;;;;;;;10.25;10.00;;;;;;;;119919;1183;24781;-64
2023/04/24 03:16:48;;;;;;;;;15.25;11.00;;;;;;;;119925;1190;26207;-63
2023/04/24 03:19:16;;;;;;;;;14.33;10.67;;;;;;;;119932;1190;24851;-64
2023/04/24 03:21:45;;;;;;;;;13.25;11.00;;;;;;;;119898;1190;25691;-63
2023/04/24 03:24:13;;;;;;;;;9.00;9.00;;;;;;;;119942;1190;25308;-64
2023/04/24 03:26:41;;;;;;;;;10.67;9.00;;;;;;;;119935;1190;25157;-63
2023/04/24 03:29:10;;;;;;;;;10.25;8.75;;;;;;;;119941;1190;24925;-63
2023/04/24 03:31:38;;;;;;;;;11.50;10.50;;;;;;;;119957;1181;25079;-63
2023/04/24 03:34:06;;;;;;;;;15.67;12.33;;;;;;;;119907;1190;25552;-64
2023/04/24 03:36:35;;;;;;;;;8.25;6.25;;;;;;;;119917;1182;26039;-63
2023/04/24 03:39:03;;;;;;;;;8.50;8.00;;;;;;;;119926;1190;25583;-63
2023/04/24 03:41:32;;;;;;;;;10.00;9.00;;;;;;;;119925;1190;25588;-64
2023/04/24 03:44:00;;;;;;;;;10.67;10.33;;;;;;;;119932;1182;25214;-63
2023/04/24 03:46:28;;;;;;;;;12.50;9.50;;;;;;;;119937;1190;25613;-63
2023/04/24 03:48:57;;;;;;;;;11.00;9.25;;;;;;;;119908;1190;25916;-64
2023/04/24 03:51:27;;;;;;;;;11.50;10.75;;;;;;;;119935;1182;25388;-64
2023/04/24 03:53:55;;;;;;;;;12.67;10.33;;;;;;;;119942;1190;25329;-64
2023/04/24 03:56:24;;;;;;;;;16.25;14.25;;;;;;;;119901;1182;25625;-64
2023/04/24 03:58:52;;;;;;;;;14.00;11.67;;;;;;;;119929;1190;25676;-64
2023/04/24 04:01:21;;;;;;;;;14.50;12.00;;;;;;;;119901;1190;25382;-64
2023/04/24 04:03:49;;;;;;;;;16.00;12.25;;;;;;;;119929;1182;24871;-64
2023/04/24 04:06:19;;;;;;;;;15.00;11.75;;;;;;;;119916;1190;24941;-64
2023/04/24 04:08:47;;;;;;;;;16.00;13.75;;;;;;;;119947;1190;24952;-64
2023/04/24 04:11:16;;;;;;;;;8.75;8.75;;;;;;;;119886;1190;24786;-65
2023/04/24 04:13:45;;;;;;;;;13.50;13.50;;;;;;;;119904;1182;25517;-64
2023/04/24 04:16:16;;;;;;;;;10.00;10.00;;;;;;;;119925;1190;24863;-64
2023/04/24 04:18:45;;;;;;;;;12.25;11.25;;;;;;;;119947;1190;25606;-64
2023/04/24 04:21:13;;;;;;;;;11.75;11.00;;;;;;;;119930;1190;24859;-64
2023/04/24 04:23:41;;;;;;;;;11.67;10.00;;;;;;;;119898;1191;24791;-63
2023/04/24 04:26:12;;;;;;;;;13.75;12.50;;;;;;;;119903;1190;25487;-63
2023/04/24 04:28:40;;;;;;;;;16.50;14.00;;;;;;;;119909;1190;24945;-64
2023/04/24 04:31:09;;;;;;;;;18.00;13.00;;;;;;;;119938;1190;25084;-65
2023/04/24 04:33:39;;;;;;;;;11.75;11.25;;;;;;;;119915;1190;24883;-65
2023/04/24 04:36:08;;;;;;;;;14.50;12.75;;;;;;;;119908;1190;25186;-64
2023/04/24 04:38:36;;;;;;;;;13.33;11.00;;;;;;;;119912;1190;25373;-64
2023/04/24 04:41:05;;;;;;;;;10.67;10.00;;;;;;;;119923;1182;24699;-64
2023/04/24 04:43:34;;;;;;;;;15.50;12.50;;;;;;;;119906;1190;24816;-64
2023/04/24 04:46:03;;;;;;;;;13.00;11.25;;;;;;;;119923;1190;25136;-65
2023/04/24 04:48:31;;;;;;;;;12.67;12.00;;;;;;;;119940;1190;25355;-65
2023/04/24 04:50:59;;;;;;;;;15.33;11.33;;;;;;;;119723;1191;25346;-65
2023/04/24 04:53:28;;;;;;;;;15.50;12.00;;;;;;;;119904;1182;25228;-65
2023/04/24 04:55:56;;;;;;;;;13.33;10.00;;;;;;;;119917;1182;25300;-65
2023/04/24 04:58:25;;;;;;;;;12.00;11.33;;;;;;;;119900;1191;24988;-65
2023/04/24 05:00:53;;;;;;;;;10.00;10.00;;;;;;;;119919;1186;24735;-64
2023/04/24 05:03:21;;;;;;;;;10.00;10.00;;;;;;;;119889;1191;25264;-66
2023/04/24 05:05:50;;;;;;;;;9.50;9.50;;;;;;;;119932;1182;24854;-67
2023/04/24 05:08:19;;;;;;;;;14.33;11.00;;;;;;;;119903;1191;25225;-64
2023/04/24 05:10:55;;;;;;;;;11.00;11.00;;;;;;;;119906;1190;25466;-64
2023/04/24 05:13:23;;;;;;;;;9.25;8.00;;;;;;;;119708;1183;25638;-64
2023/04/24 05:16:06;;;;;;;;;9.33;9.00;;;;;;;;119885;1190;25031;-62
2023/04/24 05:18:35;;;;;;;;;9.00;9.00;;;;;;;;119894;1187;25546;-61
2023/04/24 05:21:03;;;;;;;;;10.50;9.00;;;;;;;;119910;1191;25516;-62
2023/04/24 05:23:32;;;;;;;;;14.00;11.67;;;;;;;;119903;1191;24740;-64
2023/04/24 05:26:01;;;;;;;;;13.00;11.33;;;;;;;;119927;1191;25419;-65
2023/04/24 05:28:29;;;;;;;;;11.33;9.33;;;;;;;;119897;1182;24724;-65
2023/04/24 05:30:59;;;;;;;;;15.00;12.50;;;;;;;;119887;1191;25133;-66
2023/04/24 05:33:27;;;;;;;;;10.67;10.67;;;;;;;;119900;1191;24989;-65
2023/04/24 05:35:56;;;;;;;;;9.00;9.00;;;;;;;;119878;1191;24987;-64
2023/04/24 05:38:25;;;;;;;;;13.00;10.75;;;;;;;;119876;1191;24933;-63
2023/04/24 05:40:53;;;;;;;;;9.00;8.67;;;;;;;;119935;1182;25168;-63
2023/04/24 05:43:21;;;;;;;;;11.33;9.33;;;;;;;;119938;1182;24975;-64
2023/04/24 05:45:50;;;;;;;;;10.00;8.00;;;;;;;;119895;1191;24718;-61
2023/04/24 05:48:19;;;;;;;;;13.67;9.67;;;;;;;;119909;1191;25268;-63
2023/04/24 05:50:48;;;;;;;;;9.50;9.25;;;;;;;;119887;1190;24886;-64
2023/04/24 05:53:16;;;;;;;;;14.00;11.00;;;;;;;;119932;1190;25110;-66
2023/04/24 05:55:45;;;;;;;;;11.00;9.00;;;;;;;;119930;1182;25672;-64
2023/04/24 05:58:14;;;;;;;;;9.75;9.75;;;;;;;;119915;1190;25580;-65
2023/04/24 06:00:46;;;;;;;;;11.75;11.75;;;;;;;;119909;1190;25699;-66
2023/04/24 06:03:14;;;;;;;;;11.00;11.00;;;;;;;;119904;1182;25413;-62
2023/04/24 06:05:43;;;;;;;;;15.50;13.00;;;;;;;;119904;1190;25549;-64
2023/04/24 06:08:11;;;;;;;;;13.00;10.00;;;;;;;;119917;1186;25316;-64
2023/04/24 06:10:40;;;;;;;;;13.67;11.67;;;;;;;;119923;1190;24885;-64
2023/04/24 06:13:08;;;;;;;;;13.33;12.67;;;;;;;;119923;1182;25422;-63
2023/04/24 06:15:36;;;;;;;;;8.00;8.00;;;;;;;;119917;1190;25260;-63
2023/04/24 06:18:05;;;;;;;;;13.50;11.25;;;;;;;;119927;1190;24975;-64
2023/04/24 06:20:33;;;;;;;;;11.33;10.67;;;;;;;;119931;1190;24946;-60
2023/04/24 06:23:02;;;;;;;;;12.50;11.25;;;;;;;;119918;1190;25417;-61
2023/04/24 06:25:30;;;;;;;;;11.25;7.00;;;;;;;;119925;1182;26432;-60
2023/04/24 06:27:59;;;;;;;;;10.25;9.00;;;;;;;;119891;1190;25033;-61
2023/04/24 06:30:28;;;;;;;;;10.00;9.00;;;;;;;;119904;1181;25306;-60
2023/04/24 06:32:56;;;;;;;;;11.50;8.00;;;;;;;;119928;1190;24724;-60
2023/04/24 06:35:37;;;;;;;;;13.00;10.00;;;;;;;;119874;1190;25114;-60
2023/04/24 06:38:06;;;;;;;;;8.75;8.25;;;;;;;;119717;1190;24974;-60
2023/04/24 06:40:34;;;;;;;;;12.33;12.00;;;;;;;;119888;1190;25210;-60
2023/04/24 06:43:03;;;;;;;;;11.00;11.00;;;;;;;;119924;1186;25041;-60
2023/04/24 06:45:31;;;;;;;;;14.00;10.50;;;;;;;;119936;1182;25709;-60
2023/04/24 06:48:00;;;;;;;;;9.33;9.00;;;;;;;;119936;1186;26047;-60
2023/04/24 06:50:28;;;;;;;;;10.00;10.00;;;;;;;;119893;1182;25093;-60
2023/04/24 06:52:56;;;;;;;;;10.50;10.00;;;;;;;;119907;1190;25544;-62
2023/04/24 06:55:25;;;;;;;;;15.00;13.50;;;;;;;;119897;1190;25244;-62
2023/04/24 06:57:53;;;;;;;;;15.00;13.00;;;;;;;;119941;1182;24706;-65
2023/04/24 07:00:23;;;;;;;;;14.75;13.00;;;;;;;;119937;1190;25417;-66
2023/04/24 07:02:52;;;;;;;;;11.25;10.00;;;;;;;;119903;1190;25694;-65
2023/04/24 07:05:21;;;;;;;;;17.33;14.33;;;;;;;;119898;1190;25944;-68
2023/04/24 07:07:50;;;;;;;;;14.67;14.00;;;;;;;;119900;1190;24847;-64
2023/04/24 07:10:19;;;;;;;;;19.25;17.50;;;;;;;;119908;1190;25312;-62
2023/04/24 07:12:48;;;;;;;;;26.00;19.67;;;;;;;;119889;1187;25994;-61
2023/04/24 07:15:16;;;;;;;;;20.75;18.75;;;;;;;;119937;1189;25317;-60
2023/04/24 07:17:45;;;;;;;;;23.33;20.67;;;;;;;;119903;1191;25078;-61
2023/04/24 07:20:14;;;;;;;;;24.33;21.67;;;;;;;;119874;1190;25095;-60
2023/04/24 07:22:43;;;;;;;;;21.00;20.33;;;;;;;;119923;1183;25064;-61
2023/04/24 07:25:11;;;;;;;;;26.25;21.25;;;;;;;;119886;1189;24706;-60
2023/04/24 07:27:40;;;;;;;;;25.25;21.00;;;;;;;;119905;1190;25095;-60
2023/04/24 07:30:09;;;;;;;;;27.75;21.50;;;;;;;;119880;1190;25914;-60
2023/04/24 07:32:37;;;;;;;;;24.00;19.25;;;;;;;;119908;1182;25889;-61
2023/04/24 07:35:06;;;;;;;;;29.67;24.33;;;;;;;;119879;1190;25281;-61
2023/04/24 07:37:35;;;;;;;;;26.00;24.00;;;;;;;;119920;1187;25662;-61
2023/04/24 07:40:03;;;;;;;;;21.33;21.33;;;;;;;;119730;1190;25026;-61
2023/04/24 07:42:34;;;;;;;;;26.75;24.50;;;;;;;;119914;1190;25532;-61
2023/04/24 07:45:03;;;;;;;;;29.25;24.00;;;;;;;;119935;1182;24929;-62
2023/04/24 07:47:32;;;;;;;;;26.67;22.00;;;;;;;;119919;1190;25055;-61
2023/04/24 07:50:00;;;;;;;;;21.33;19.33;;;;;;;;119920;1191;25253;-62
2023/04/24 07:52:28;;;;;;;;;21.00;20.00;;;;;;;;119901;1182;25688;-62
2023/04/24 07:55:00;;;;;;;;;22.75;19.25;;;;;;;;119917;1190;25498;-62
2023/04/24 07:57:28;;;;;;;;;24.00;19.75;;;;;;;;119917;1182;24803;-62
2023/04/24 07:59:57;;;;;;;;;27.67;21.33;;;;;;;;119921;1190;25720;-62
2023/04/24 08:02:29;;;;;;;;;28.75;24.00;;;;;;;;119931;1177;25215;-62
2023/04/24 08:04:57;;;;;;;;;28.00;22.67;;;;;;;;119916;1182;25621;-69
2023/04/24 08:07:27;;;;;;;;;22.00;18.50;;;;;;;;119899;1191;24899;-68
2023/04/24 08:09:56;;;;;;;;;22.00;17.75;;;;;;;;119904;1191;24804;-65
2023/04/24 08:12:24;;;;;;;;;21.67;20.33;;;;;;;;119899;1191;25476;-65
2023/04/24 08:14:53;;;;;;;;;24.00;21.50;;;;;;;;119910;1191;25171;-64
2023/04/24 08:17:22;;;;;;;;;26.50;22.50;;;;;;;;119929;1191;24988;-64
2023/04/24 08:19:52;;;;;;;;;29.00;20.67;;;;;;;;119843;1191;25379;-64
2023/04/24 08:22:20;;;;;;;;;24.00;19.00;;;;;;;;119899;1191;24926;-64
2023/04/24 08:24:49;;;;;;;;;23.50;22.75;;;;;;;;119945;1182;25776;-64
2023/04/24 08:27:17;;;;;;;;;19.67;19.00;;;;;;;;119912;1191;24962;-65
2023/04/24 08:29:45;;;;;;;;;23.67;19.67;;;;;;;;119917;1184;25167;-64
2023/04/24 08:32:14;;;;;;;;;20.00;20.00;;;;;;;;119803;1191;25303;-65
2023/04/24 08:34:42;;;;;;;;;19.00;18.00;;;;;;;;119915;1190;25160;-64
2023/04/24 08:37:10;;;;;;;;;24.33;18.00;;;;;;;;119931;1182;25086;-64
2023/04/24 08:39:39;;;;;;;;;19.50;17.75;;;;;;;;119802;1191;25242;-64
2023/04/24 08:42:08;;;;;;;;;18.25;16.75;;;;;;;;119725;1185;25250;-64
2023/04/24 08:44:37;;;;;;;;;21.00;18.50;;;;;;;;119733;1191;24808;-64
2023/04/24 08:47:07;;;;;;;;;19.67;18.67;;;;;;;;119719;1191;25503;-64
2023/04/24 08:49:37;;;;;;;;;21.33;20.00;;;;;;;;119783;1183;25408;-63
2023/04/24 08:52:05;;;;;;;;;20.50;17.25;;;;;;;;119777;1188;26893;-64
2023/04/24 08:54:35;;;;;;;;;21.00;17.33;;;;;;;;119903;1191;25001;-65
2023/04/24 08:57:07;;;;;;;;;21.50;17.25;;;;;;;;119720;1184;24989;-65
2023/04/24 08:59:36;;;;;;;;;20.33;17.33;;;;;;;;119773;1183;25632;-65
2023/04/24 09:02:05;;;;;;;;;21.25;15.50;;;;;;;;119806;1183;25295;-65
2023/04/24 09:04:33;;;;;;;;;16.25;16.25;;;;;;;;119910;1191;25131;-65
2023/04/24 09:07:03;;;;;;;;;19.67;17.33;;;;;;;;119799;1191;25132;-65
2023/04/24 09:09:32;;;;;;;;;18.25;17.25;;;;;;;;119920;1187;24822;-64
2023/04/24 09:12:01;;;;;;;;;20.00;15.25;;;;;;;;119923;1190;24735;-64
2023/04/24 09:14:31;;;;;;;;;18.00;16.75;;;;;;;;119890;1190;25166;-65
2023/04/24 09:17:00;;;;;;;;;20.25;18.00;;;;;;;;119929;1190;25408;-65
2023/04/24 09:19:28;;;;;;;;;20.50;17.00;;;;;;;;119935;1190;24811;-65
2023/04/24 09:21:57;;;;;;;;;22.00;17.00;;;;;;;;119944;1182;24774;-64
2023/04/24 09:24:25;;;;;;;;;19.67;16.67;;;;;;;;119867;1191;25189;-65
2023/04/24 09:27:06;;;;;;;;;17.00;16.00;;;;;;;;119936;1182;24896;-65
2023/04/24 09:29:38;;;;;;;;;18.75;14.50;;;;;;;;119740;1191;25152;-65
2023/04/24 09:32:21;;;;;;;;;27.67;18.33;;;;;;;;119795;1191;25499;-65
2023/04/24 09:35:12;;;;;;;;;24.75;17.75;;;;;;;;119895;1191;25623;-65
2023/04/24 09:37:45;;;;;;;;;14.00;14.00;;;;;;;;119912;1191;25516;-65
2023/04/24 09:40:18;;;;;;;;;20.75;17.75;;;;;;;;119786;1191;25684;-65
2023/04/24 09:42:51;;;;;;;;;14.00;13.50;;;;;;;;119771;1191;25039;-65
2023/04/24 09:45:20;;;;;;;;;19.50;16.50;;;;;;;;119895;1191;25059;-65
2023/04/24 09:47:55;;;;;;;;;17.00;16.50;;;;;;;;119759;1191;25655;-65
2023/04/24 09:50:23;;;;;;;;;16.00;16.00;;;;;;;;119868;1191;24953;-65
2023/04/24 09:52:59;;;;;;;;;16.75;15.25;;;;;;;;119902;1182;24914;-65
2023/04/24 09:55:28;;;;;;;;;17.50;14.00;;;;;;;;119797;1183;24868;-65
2023/04/24 09:58:00;;;;;;;;;19.25;18.00;;;;;;;;119782;1190;25296;-65
2023/04/24 10:00:31;;;;;;;;;17.67;16.67;;;;;;;;119914;1190;24969;-64
2023/04/24 10:03:04;;;;;;;;;20.00;20.00;;;;;;;;119738;1190;24849;-65
2023/04/24 10:05:35;;;;;;;;;17.33;15.67;;;;;;;;119736;1190;25122;-65
2023/04/24 10:08:05;;;;;;;;;18.25;17.25;;;;;;;;119877;1190;25234;-65
2023/04/24 10:10:38;;;;;;;;;18.50;15.50;;;;;;;;119926;1181;25094;-64
2023/04/24 10:13:11;;;;;;;;;20.50;15.00;;;;;;;;119926;1182;25675;-64
2023/04/24 10:15:40;;;;;;;;;14.50;12.00;;;;;;;;119876;1191;25059;-65
2023/04/24 10:18:10;;;;;;;;;17.00;15.00;;;;;;;;119899;1191;24912;-65
2023/04/24 10:20:40;;;;;;;;;18.50;16.50;;;;;;;;119727;1183;25661;-65
2023/04/24 10:23:08;;;;;;;;;19.00;18.33;;;;;;;;119831;1191;25202;-65
2023/04/24 10:25:37;;;;;;;;;18.00;15.67;;;;;;;;119915;1182;25027;-65
2023/04/24 10:28:05;;;;;;;;;14.33;14.00;;;;;;;;119907;1191;25125;-64
2023/04/24 10:30:39;;;;;;;;;18.33;15.33;;;;;;;;119794;1190;25078;-65
2023/04/24 10:33:08;;;;;;;;;21.67;19.00;;;;;;;;119711;1191;24879;-65
2023/04/24 10:35:47;;;;;;;;;19.00;16.00;;;;;;;;119727;1184;25267;-65
2023/04/24 10:38:24;;;;;;;;;18.50;17.00;;;;;;;;119826;1183;24708;-66
2023/04/24 10:41:07;;;;;;;;;17.25;15.25;;;;;;;;119921;1191;25508;-65
2023/04/24 10:43:35;;;;;;;;;18.75;15.75;;;;;;;;119905;1191;25141;-65
2023/04/24 10:46:05;;;;;;;;;17.25;17.25;;;;;;;;119898;1188;25297;-65
2023/04/24 10:48:34;;;;;;;;;12.67;12.67;;;;;;;;119962;1181;25119;-65
2023/04/24 10:51:02;;;;;;;;;14.50;11.75;;;;;;;;119881;1190;25383;-65
2023/04/24 10:53:31;;;;;;;;;10.33;9.67;;;;;;;;119882;1190;25455;-65
2023/04/24 10:56:04;;;;;;;;;15.67;15.67;;;;;;;;119911;1182;25014;-65
2023/04/24 10:58:53;;;;;;;;;20.33;17.00;;;;;;;;119908;1190;25616;-66
2023/04/24 11:01:30;;;;;;;;;17.50;14.75;;;;;;;;119907;1190;25734;-65
2023/04/24 11:04:03;;;;;;;;;16.33;16.33;;;;;;;;119871;1190;25298;-65
2023/04/24 11:06:36;;;;;;;;;17.67;16.33;;;;;;;;119946;1182;24768;-65
2023/04/24 11:09:16;;;;;;;;;15.00;14.33;;;;;;;;119906;1190;25270;-65
2023/04/24 11:11:45;;;;;;;;;20.50;17.50;;;;;;;;119937;1190;25385;-65
2023/04/24 11:14:15;;;;;;;;;15.25;14.50;;;;;;;;119945;1181;25451;-65
2023/04/24 11:16:45;;;;;;;;;18.50;17.00;;;;;;;;119926;1190;25080;-65
2023/04/24 11:19:15;;;;;;;;;15.00;15.00;;;;;;;;119891;1182;25270;-65
2023/04/24 11:22:13;;;;;;;;;17.25;16.00;;;;;;;;119920;1190;25508;-65
2023/04/24 11:24:45;;;;;;;;;14.50;14.25;;;;;;;;119929;1190;25274;-65
2023/04/24 11:27:16;;;;;;;;;13.25;12.25;;;;;;;;119931;1190;24775;-65
2023/04/24 11:29:56;;;;;;;;;16.50;14.00;;;;;;;;119930;1190;24810;-65
2023/04/24 11:32:31;;;;;;;;;16.50;15.50;;;;;;;;119912;1190;24825;-65
2023/04/24 11:35:05;;;;;;;;;12.33;11.00;;;;;;;;119931;1190;25169;-65
2023/04/24 11:37:34;;;;;;;;;21.50;17.00;;;;;;;;119939;1186;24870;-65
2023/04/24 11:40:04;;;;;;;;;14.33;12.67;;;;;;;;119942;1181;25526;-65
2023/04/24 11:42:36;;;;;;;;;13.00;13.00;;;;;;;;119913;1190;25633;-65
2023/04/24 11:45:09;;;;;;;;;17.25;15.25;;;;;;;;119909;1182;25710;-65
2023/04/24 11:47:38;;;;;;;;;17.67;15.00;;;;;;;;119923;1190;25095;-65
2023/04/24 11:50:09;;;;;;;;;8.25;8.00;;;;;;;;119892;1182;25459;-64
2023/04/24 11:52:46;;;;;;;;;16.50;14.25;;;;;;;;119902;1190;25631;-65
2023/04/24 11:55:14;;;;;;;;;15.00;14.67;;;;;;;;119915;1190;24846;-65
2023/04/24 11:57:44;;;;;;;;;13.50;13.50;;;;;;;;119911;1190;25266;-65
2023/04/24 12:00:34;;;;;;;;;15.50;13.00;;;;;;;;119926;1190;25152;-65
2023/04/24 12:03:07;;;;;;;;;16.67;13.67;;;;;;;;119913;1190;25106;-65
2023/04/24 12:05:36;;;;;;;;;17.00;14.67;;;;;;;;119941;1181;25302;-65
2023/04/24 12:08:05;;;;;;;;;15.25;13.50;;;;;;;;119888;1190;25466;-65
2023/04/24 12:10:34;;;;;;;;;17.50;15.00;;;;;;;;119902;1190;24904;-65
2023/04/24 12:13:03;;;;;;;;;15.50;14.75;;;;;;;;119921;1190;24875;-65
2023/04/24 12:15:31;;;;;;;;;13.25;13.25;;;;;;;;119904;1191;25654;-65
2023/04/24 12:18:00;;;;;;;;;15.00;14.00;;;;;;;;119909;1191;25517;-65
2023/04/24 12:20:31;;;;;;;;;17.75;12.50;;;;;;;;119905;1191;25134;-65
2023/04/24 12:23:00;;;;;;;;;14.75;13.50;;;;;;;;119907;1191;25705;-65
2023/04/24 12:25:31;;;;;;;;;12.50;12.25;;;;;;;;119710;1184;25444;-65
2023/04/24 12:28:02;;;;;;;;;14.50;14.50;;;;;;;;119777;1191;24709;-65
2023/04/24 12:30:39;;;;;;;;;14.00;11.00;;;;;;;;119930;1182;24983;-65
2023/04/24 12:33:08;;;;;;;;;15.25;14.75;;;;;;;;119931;1190;25690;-65
2023/04/24 12:35:36;;;;;;;;;17.00;15.50;;;;;;;;119892;1182;25655;-65
2023/04/24 12:38:09;;;;;;;;;2.00;2.00;;;;;;;;119892;1190;25092;-65
2023/04/24 12:40:38;;;;;;;;;13.50;13.50;;;;;;;;119733;1183;24748;-65
2023/04/24 12:43:20;;;;;;;;;15.50;14.50;;;;;;;;119939;1190;24880;-65
2023/04/24 12:45:48;;;;;;;;;15.50;13.50;;;;;;;;119728;1182;25493;-65
2023/04/24 12:48:16;;;;;;;;;14.00;13.67;;;;;;;;119914;1190;24957;-65
2023/04/24 12:50:45;;;;;;;;;15.50;14.50;;;;;;;;119937;1182;25275;-65
2023/04/24 12:53:15;;;;;;;;;12.25;11.00;;;;;;;;119911;1190;24903;-65
2023/04/24 12:55:44;;;;;;;;;12.67;11.67;;;;;;;;119915;1190;25552;-64
2023/04/24 12:58:13;;;;;;;;;12.67;12.00;;;;;;;;119845;1191;24922;-65
2023/04/24 13:00:43;;;;;;;;;10.75;10.50;;;;;;;;119914;1182;24967;-66
2023/04/24 13:03:12;;;;;;;;;15.25;12.75;;;;;;;;119916;1190;25666;-69
2023/04/24 13:05:42;;;;;;;;;16.67;16.00;;;;;;;;119917;1190;24959;-65
2023/04/24 13:08:12;;;;;;;;;15.00;12.00;;;;;;;;119903;1190;24891;-65
2023/04/24 13:10:41;;;;;;;;;13.00;13.00;;;;;;;;119892;1190;25039;-65
2023/04/24 13:13:09;;;;;;;;;15.00;13.00;;;;;;;;119907;1190;25269;-65
2023/04/24 13:15:37;;;;;;;;;11.33;11.33;;;;;;;;119896;1190;24969;-65
2023/04/24 13:18:06;;;;;;;;;11.50;11.50;;;;;;;;119989;1177;25314;-65
2023/04/24 13:20:35;;;;;;;;;15.00;12.67;;;;;;;;120017;1189;25427;-65
2023/04/24 13:23:03;;;;;;;;;12.50;10.25;;;;;;;;119935;1189;24865;-66
2023/04/24 13:25:37;;;;;;;;;14.00;12.50;;;;;;;;119894;1190;25266;-65
2023/04/24 13:28:06;;;;;;;;;13.25;12.00;;;;;;;;119907;1190;24973;-65
2023/04/24 13:30:34;;;;;;;;;16.00;14.00;;;;;;;;119881;1190;25029;-66
2023/04/24 13:33:02;;;;;;;;;15.67;13.33;;;;;;;;119902;1190;25473;-65
2023/04/24 13:35:31;;;;;;;;;14.00;14.00;;;;;;;;119930;1182;25052;-64
2023/04/24 13:38:00;;;;;;;;;14.75;13.00;;;;;;;;119875;1177;24902;-64
2023/04/24 13:40:29;;;;;;;;;17.00;16.25;;;;;;;;119906;1181;25674;-64
2023/04/24 13:42:57;;;;;;;;;13.75;13.50;;;;;;;;119905;1182;24994;-62
2023/04/24 13:45:26;;;;;;;;;18.50;11.50;;;;;;;;119919;1190;25517;-62
2023/04/24 13:47:54;;;;;;;;;14.75;13.00;;;;;;;;119914;1191;25751;-61
2023/04/24 13:50:23;;;;;;;;;19.00;16.50;;;;;;;;119921;1190;25228;-61
2023/04/24 13:52:51;;;;;;;;;15.50;13.25;;;;;;;;119940;1181;25326;-62
2023/04/24 13:55:20;;;;;;;;;14.00;14.00;;;;;;;;119907;1188;25117;-62
2023/04/24 13:57:49;;;;;;;;;13.00;12.33;;;;;;;;119955;1182;24800;-61
2023/04/24 14:00:17;;;;;;;;;18.00;14.75;;;;;;;;119919;1190;25328;-61
2023/04/24 14:02:46;;;;;;;;;15.00;12.75;;;;;;;;119938;1190;25448;-62
2023/04/24 14:05:18;;;;;;;;;14.00;13.00;;;;;;;;119930;1186;25650;-62
2023/04/24 14:07:46;;;;;;;;;13.75;13.75;;;;;;;;119954;1181;24788;-63
2023/04/24 14:10:15;;;;;;;;;14.00;12.50;;;;;;;;119935;1182;26226;-61
2023/04/24 14:12:43;;;;;;;;;10.50;10.25;;;;;;;;119927;1190;25111;-62
2023/04/24 14:15:13;;;;;;;;;13.33;13.33;;;;;;;;119927;1190;25592;-62
2023/04/24 14:17:41;;;;;;;;;12.00;12.00;;;;;;;;119971;1181;25195;-62
2023/04/24 14:20:12;;;;;;;;;12.00;10.50;;;;;;;;119913;1190;25370;-61
2023/04/24 14:22:40;;;;;;;;;11.67;11.33;;;;;;;;119919;1191;24839;-61